Time;durP1;ratioP1;P1;durP2;ratioP2;P2;SDS_P1;SDS_P2;PMS_P1;PMS_P2;Temp;Humidity;BMP_temperature;BMP_pressure;BME280_temperature;BME280_humidity;BME280_pressure;Samples;Min_cycle;Max_cycle;Signal;HPM_P1;HPM_P2
2023/03/23 00:01:36;;;;;;;4.97;3.50;;;;;;;;;;4993272;28;20288;-63
2023/03/23 00:04:02;;;;;;;4.10;3.15;;;;;;;;;;4982900;28;20044;-63
2023/03/23 00:06:27;;;;;;;4.60;3.17;;;;;;;;;;4996924;28;20042;-63
2023/03/23 00:08:56;;;;;;;4.93;3.38;;;;;;;;;;4986570;28;20030;-63
2023/03/23 00:11:26;;;;;;;4.53;3.30;;;;;;;;;;4992160;28;20033;-63
2023/03/23 00:13:51;;;;;;;;;;;;;;;;;;4994977;28;20881;-62
2023/03/23 00:16:17;;;;;;;4.50;3.30;;;;;;;;;;5013522;28;20004;-63
2023/03/23 00:18:52;;;;;;;4.80;3.38;;;;;;;;;;4977470;28;20033;-63
2023/03/23 00:21:34;;;;;;;4.95;3.60;;;;;;;;;;4999045;28;20045;-62
2023/03/23 00:24:03;;;;;;;4.53;3.53;;;;;;;;;;4995201;28;20172;-63
2023/03/23 00:26:29;;;;;;;4.97;3.40;;;;;;;;;;4982130;28;20046;-62
2023/03/23 00:28:55;;;;;;;5.00;3.42;;;;;;;;;;4966470;28;20060;-63
2023/03/23 00:31:20;;;;;;;4.80;3.45;;;;;;;;;;4973020;28;20785;-63
2023/03/23 00:33:46;;;;;;;4.65;3.47;;;;;;;;;;4975425;28;20125;-62
2023/03/23 00:36:12;;;;;;;4.70;3.50;;;;;;;;;;4977630;28;20392;-64
2023/03/23 00:38:37;;;;;;;5.03;3.70;;;;;;;;;;4977153;28;20277;-62
2023/03/23 00:41:03;;;;;;;4.40;3.60;;;;;;;;;;4978028;28;20101;-63
2023/03/23 00:43:28;;;;;;;4.57;3.72;;;;;;;;;;4990505;28;20052;-62
2023/03/23 00:45:54;;;;;;;4.65;3.47;;;;;;;;;;4981714;28;20053;-61
2023/03/23 00:48:19;;;;;;;4.07;3.40;;;;;;;;;;4985947;28;20148;-62
2023/03/23 00:50:45;;;;;;;4.38;3.53;;;;;;;;;;5010616;28;20045;-61
2023/03/23 00:53:10;;;;;;;4.93;3.67;;;;;;;;;;5010966;28;20030;-62
2023/03/23 00:55:36;;;;;;;4.73;3.27;;;;;;;;;;4997827;28;20459;-62
2023/03/23 00:58:01;;;;;;;4.95;3.67;;;;;;;;;;5002960;28;20367;-62
2023/03/23 01:00:26;;;;;;;4.77;3.60;;;;;;;;;;4988560;28;20038;-62
2023/03/23 01:02:54;;;;;;;4.57;3.70;;;;;;;;;;5015678;28;20391;-63
2023/03/23 01:05:20;;;;;;;5.20;4.03;;;;;;;;;;4994484;28;20843;-62
2023/03/23 01:07:45;;;;;;;5.13;3.72;;;;;;;;;;4995238;28;20096;-63
2023/03/23 01:10:12;;;;;;;5.00;3.50;;;;;;;;;;4995699;28;20041;-61
2023/03/23 01:12:38;;;;;;;5.53;4.07;;;;;;;;;;5022402;28;20054;-63
2023/03/23 01:15:03;;;;;;;4.80;3.67;;;;;;;;;;5015884;28;20057;-61
2023/03/23 01:17:29;;;;;;;5.18;3.92;;;;;;;;;;4999512;28;20038;-64
2023/03/23 01:19:54;;;;;;;5.57;4.00;;;;;;;;;;5009719;28;20699;-62
2023/03/23 01:22:19;;;;;;;4.90;3.80;;;;;;;;;;5011069;28;20326;-62
2023/03/23 01:24:45;;;;;;;4.75;3.67;;;;;;;;;;4985022;28;20037;-62
2023/03/23 01:27:10;;;;;;;5.60;4.13;;;;;;;;;;5025657;28;20101;-62
2023/03/23 01:29:36;;;;;;;4.88;3.75;;;;;;;;;;4997704;28;20026;-62
2023/03/23 01:32:01;;;;;;;5.07;3.73;;;;;;;;;;5017495;28;20153;-61
2023/03/23 01:34:27;;;;;;;5.28;4.03;;;;;;;;;;4983033;28;20284;-64
2023/03/23 01:36:52;;;;;;;5.57;4.20;;;;;;;;;;5009127;28;20085;-62
2023/03/23 01:39:17;;;;;;;5.70;4.32;;;;;;;;;;4998675;28;20038;-62
2023/03/23 01:41:42;;;;;;;5.47;4.07;;;;;;;;;;4980809;28;20513;-62
2023/03/23 01:44:28;;;;;;;5.07;4.10;;;;;;;;;;5010156;28;20273;-62
2023/03/23 01:46:54;;;;;;;5.53;4.25;;;;;;;;;;5013116;28;20315;-62
2023/03/23 01:49:24;;;;;;;5.53;4.07;;;;;;;;;;4997629;28;20651;-62
2023/03/23 01:51:50;;;;;;;5.35;4.13;;;;;;;;;;5010642;28;20025;-62
2023/03/23 01:54:19;;;;;;;5.15;3.80;;;;;;;;;;5000727;28;20596;-62
2023/03/23 01:57:03;;;;;;;4.97;3.88;;;;;;;;;;5023978;28;20034;-62
2023/03/23 01:59:28;;;;;;;5.03;4.00;;;;;;;;;;5000730;28;20080;-62
2023/03/23 02:01:54;;;;;;;5.32;4.20;;;;;;;;;;4983444;28;20037;-62
2023/03/23 02:04:19;;;;;;;5.28;3.88;;;;;;;;;;5003906;28;20399;-62
2023/03/23 02:06:44;;;;;;;5.70;4.40;;;;;;;;;;4997982;28;20466;-62
2023/03/23 02:09:10;;;;;;;4.93;4.10;;;;;;;;;;5003617;28;20269;-63
2023/03/23 02:11:35;;;;;;;5.43;4.22;;;;;;;;;;5005135;28;20060;-61
2023/03/23 02:14:00;;;;;;;5.53;3.97;;;;;;;;;;5003383;28;20504;-62
2023/03/23 02:16:26;;;;;;;5.73;4.10;;;;;;;;;;5007483;28;20269;-63
2023/03/23 02:18:51;;;;;;;6.00;4.25;;;;;;;;;;5007606;28;20291;-62
2023/03/23 02:21:16;;;;;;;5.53;4.00;;;;;;;;;;5009265;28;21304;-62
2023/03/23 02:23:45;;;;;;;5.10;4.13;;;;;;;;;;5001387;28;20300;-62
2023/03/23 02:26:11;;;;;;;5.05;4.10;;;;;;;;;;5002512;28;20295;-63
2023/03/23 02:28:40;;;;;;;5.40;4.13;;;;;;;;;;5014339;28;20120;-61
2023/03/23 02:31:24;;;;;;;4.43;4.03;;;;;;;;;;4999431;28;20046;-63
2023/03/23 02:33:49;;;;;;;6.43;4.43;;;;;;;;;;5004763;28;20042;-63
2023/03/23 02:36:17;;;;;;;5.00;4.23;;;;;;;;;;4999432;28;20037;-62
2023/03/23 02:38:50;;;;;;;5.60;4.05;;;;;;;;;;4998885;28;20289;-63
2023/03/23 02:41:15;;;;;;;5.28;4.15;;;;;;;;;;5003270;28;20034;-63
2023/03/23 02:43:42;;;;;;;4.65;4.00;;;;;;;;;;4980204;28;20044;-63
2023/03/23 02:46:08;;;;;;;6.55;4.60;;;;;;;;;;4997106;28;20038;-62
2023/03/23 02:48:33;;;;;;;5.53;4.57;;;;;;;;;;5001588;28;20408;-64
2023/03/23 02:50:58;;;;;;;6.07;4.40;;;;;;;;;;4982999;28;20543;-63
2023/03/23 02:53:24;;;;;;;5.25;3.90;;;;;;;;;;5004427;28;20288;-63
2023/03/23 02:55:49;;;;;;;5.07;4.45;;;;;;;;;;4998446;28;20860;-61
2023/03/23 02:58:15;;;;;;;4.83;4.07;;;;;;;;;;5014288;28;20130;-62
2023/03/23 03:00:40;;;;;;;5.95;4.35;;;;;;;;;;5005597;28;20793;-62
2023/03/23 03:03:06;;;;;;;5.45;4.63;;;;;;;;;;5016029;28;20487;-62
2023/03/23 03:05:44;;;;;;;5.57;4.18;;;;;;;;;;4998398;28;20666;-62
2023/03/23 03:08:17;;;;;;;6.25;4.43;;;;;;;;;;5016753;28;20052;-62
2023/03/23 03:10:52;;;;;;;5.15;4.20;;;;;;;;;;4999657;28;20042;-62
2023/03/23 03:13:29;;;;;;;5.35;4.43;;;;;;;;;;4972002;28;20042;-61
2023/03/23 03:16:14;;;;;;;6.35;4.60;;;;;;;;;;4997740;28;20117;-62
2023/03/23 03:18:42;;;;;;;5.05;4.30;;;;;;;;;;4986576;28;20041;-62
2023/03/23 03:21:08;;;;;;;5.28;4.32;;;;;;;;;;4970073;28;20026;-63
2023/03/23 03:23:34;;;;;;;5.38;4.40;;;;;;;;;;4986377;28;20410;-62
2023/03/23 03:26:00;;;;;;;5.95;4.15;;;;;;;;;;4989282;28;20045;-61
2023/03/23 03:28:26;;;;;;;5.72;4.72;;;;;;;;;;4970516;28;20022;-62
2023/03/23 03:30:56;;;;;;;5.50;4.50;;;;;;;;;;4986143;28;20025;-62
2023/03/23 03:33:25;;;;;;;5.38;4.28;;;;;;;;;;4964588;28;20097;-62
2023/03/23 03:35:50;;;;;;;4.93;3.95;;;;;;;;;;4976429;28;20024;-63
2023/03/23 03:38:16;;;;;;;5.57;4.13;;;;;;;;;;4971912;28;20038;-61
2023/03/23 03:40:41;;;;;;;6.07;4.78;;;;;;;;;;4982474;28;20014;-62
2023/03/23 03:43:07;;;;;;;5.97;4.57;;;;;;;;;;5012541;28;20021;-61
2023/03/23 03:45:32;;;;;;;5.32;4.00;;;;;;;;;;5007438;28;20021;-61
2023/03/23 03:47:57;;;;;;;5.63;4.30;;;;;;;;;;4974840;28;20019;-65
2023/03/23 03:50:23;;;;;;;5.35;4.70;;;;;;;;;;5022982;28;20059;-63
2023/03/23 03:52:48;;;;;;;4.90;4.40;;;;;;;;;;5002973;28;20037;-61
2023/03/23 03:55:14;;;;;;;6.13;4.70;;;;;;;;;;5002935;28;20537;-61
2023/03/23 03:57:41;;;;;;;4.78;4.25;;;;;;;;;;5038121;28;20059;-61
2023/03/23 04:00:14;;;;;;;5.43;4.50;;;;;;;;;;5046628;28;20024;-62
2023/03/23 04:02:42;;;;;;;5.47;4.07;;;;;;;;;;5040839;28;20040;-61
2023/03/23 04:05:09;;;;;;;6.10;4.78;;;;;;;;;;5031165;28;20128;-60
2023/03/23 04:07:37;;;;;;;5.30;4.28;;;;;;;;;;5006198;28;20083;-62
2023/03/23 04:10:04;;;;;;;5.75;4.80;;;;;;;;;;5004196;28;20176;-62
2023/03/23 04:12:29;;;;;;;5.93;4.45;;;;;;;;;;5009650;28;20032;-62
2023/03/23 04:14:54;;;;;;;6.32;4.72;;;;;;;;;;4998095;28;20033;-61
2023/03/23 04:17:20;;;;;;;7.05;5.07;;;;;;;;;;5006229;28;20536;-63
2023/03/23 04:19:45;;;;;;;6.63;4.18;;;;;;;;;;4995517;28;20134;-62
2023/03/23 04:22:10;;;;;;;5.77;4.73;;;;;;;;;;5033851;28;20136;-63
2023/03/23 04:24:36;;;;;;;5.72;4.57;;;;;;;;;;5033452;28;20276;-62
2023/03/23 04:27:01;;;;;;;6.00;4.50;;;;;;;;;;5031713;28;20080;-62
2023/03/23 04:29:27;;;;;;;5.97;4.60;;;;;;;;;;5012053;28;20044;-61
2023/03/23 04:31:52;;;;;;;5.93;5.05;;;;;;;;;;5022890;28;20558;-62
2023/03/23 04:34:17;;;;;;;7.78;4.70;;;;;;;;;;5021946;28;20489;-61
2023/03/23 04:36:43;;;;;;;6.03;4.75;;;;;;;;;;5007036;28;20053;-62
2023/03/23 04:39:09;;;;;;;5.68;4.70;;;;;;;;;;5006934;28;20041;-63
2023/03/23 04:41:38;;;;;;;5.55;4.22;;;;;;;;;;5016450;28;20041;-64
2023/03/23 04:44:04;;;;;;;8.35;4.57;;;;;;;;;;5013369;28;20032;-63
2023/03/23 04:46:30;;;;;;;6.43;4.80;;;;;;;;;;5010753;28;20033;-64
2023/03/23 04:48:55;;;;;;;5.47;4.05;;;;;;;;;;5011794;28;20045;-63
2023/03/23 04:51:20;;;;;;;5.38;4.43;;;;;;;;;;5032185;28;20036;-64
2023/03/23 04:53:45;;;;;;;5.27;4.27;;;;;;;;;;5028585;28;20960;-63
2023/03/23 04:56:13;;;;;;;5.78;4.60;;;;;;;;;;5000775;28;20287;-67
2023/03/23 04:58:39;;;;;;;5.55;4.28;;;;;;;;;;5030116;28;20090;-63
2023/03/23 05:01:04;;;;;;;6.28;4.47;;;;;;;;;;5027213;28;20047;-63
2023/03/23 05:03:30;;;;;;;6.57;4.57;;;;;;;;;;5013606;28;20120;-66
2023/03/23 05:05:55;;;;;;;5.97;4.55;;;;;;;;;;5009257;28;20767;-63
2023/03/23 05:08:21;;;;;;;5.07;4.05;;;;;;;;;;4979823;28;20072;-64
2023/03/23 05:10:50;;;;;;;6.63;4.70;;;;;;;;;;5008248;28;20416;-63
2023/03/23 05:13:15;;;;;;;4.50;3.57;;;;;;;;;;5003350;28;20061;-66
2023/03/23 05:15:41;;;;;;;5.78;4.40;;;;;;;;;;4998562;28;20532;-64
2023/03/23 05:18:06;;;;;;;4.28;3.75;;;;;;;;;;5005750;28;20053;-64
2023/03/23 05:20:32;;;;;;;5.27;3.87;;;;;;;;;;5018971;28;20791;-65
2023/03/23 05:22:58;;;;;;;5.70;4.43;;;;;;;;;;5012190;28;20295;-68
2023/03/23 05:25:24;;;;;;;5.72;4.20;;;;;;;;;;4980828;28;20611;-65
2023/03/23 05:27:52;;;;;;;5.82;4.57;;;;;;;;;;4968554;28;20500;-65
2023/03/23 05:30:18;;;;;;;5.25;4.18;;;;;;;;;;4997021;28;20042;-64
2023/03/23 05:32:44;;;;;;;5.97;4.25;;;;;;;;;;5012370;28;20049;-65
2023/03/23 05:35:09;;;;;;;6.05;4.50;;;;;;;;;;5020630;28;20038;-63
2023/03/23 05:37:35;;;;;;;5.28;4.38;;;;;;;;;;4997183;28;20809;-64
2023/03/23 05:40:05;;;;;;;5.07;4.38;;;;;;;;;;5005647;28;20120;-66
2023/03/23 05:42:34;;;;;;;5.85;4.28;;;;;;;;;;5017727;28;20435;-66
2023/03/23 05:45:00;;;;;;;5.85;4.28;;;;;;;;;;5035271;28;20037;-65
2023/03/23 05:47:26;;;;;;;4.93;4.03;;;;;;;;;;5028604;28;20101;-64
2023/03/23 05:49:51;;;;;;;5.25;4.10;;;;;;;;;;5031989;28;20478;-65
2023/03/23 05:52:17;;;;;;;6.38;4.20;;;;;;;;;;4991033;28;20045;-64
2023/03/23 05:54:42;;;;;;;5.07;4.03;;;;;;;;;;5001380;28;20711;-62
2023/03/23 05:57:08;;;;;;;5.63;4.47;;;;;;;;;;4999973;28;20076;-64
2023/03/23 05:59:33;;;;;;;6.00;4.35;;;;;;;;;;5026531;28;20033;-63
2023/03/23 06:01:59;;;;;;;4.85;3.75;;;;;;;;;;5017615;28;20137;-65
2023/03/23 06:04:24;;;;;;;5.40;4.07;;;;;;;;;;5023579;28;20573;-64
2023/03/23 06:06:51;;;;;;;5.53;4.40;;;;;;;;;;5012088;28;20690;-64
2023/03/23 06:09:16;;;;;;;6.35;4.28;;;;;;;;;;4999080;28;20068;-64
2023/03/23 06:11:42;;;;;;;4.93;4.10;;;;;;;;;;5018979;28;20068;-65
2023/03/23 06:14:07;;;;;;;6.18;4.00;;;;;;;;;;5011280;28;20030;-65
2023/03/23 06:16:33;;;;;;;5.90;4.00;;;;;;;;;;5004143;28;20025;-65
2023/03/23 06:19:00;;;;;;;4.57;3.95;;;;;;;;;;5016487;28;20139;-63
2023/03/23 06:21:25;;;;;;;5.68;4.00;;;;;;;;;;5004860;28;20033;-64
2023/03/23 06:23:51;;;;;;;6.93;4.20;;;;;;;;;;4974615;28;20510;-64
2023/03/23 06:26:16;;;;;;;4.63;3.92;;;;;;;;;;5002567;28;20506;-64
2023/03/23 06:28:42;;;;;;;5.72;4.47;;;;;;;;;;4999803;28;20084;-64
2023/03/23 06:31:08;;;;;;;5.88;4.10;;;;;;;;;;4980390;28;20052;-65
2023/03/23 06:33:35;;;;;;;5.13;4.03;;;;;;;;;;4999174;28;20113;-64
2023/03/23 06:36:00;;;;;;;8.15;4.07;;;;;;;;;;5007873;28;20482;-66
2023/03/23 06:38:26;;;;;;;5.70;4.10;;;;;;;;;;5004648;28;20046;-66
2023/03/23 06:40:55;;;;;;;6.32;3.63;;;;;;;;;;5015206;28;20030;-64
2023/03/23 06:43:20;;;;;;;6.63;4.37;;;;;;;;;;5009559;28;20042;-64
2023/03/23 06:45:45;;;;;;;6.95;4.22;;;;;;;;;;5021644;28;20048;-65
2023/03/23 06:48:11;;;;;;;7.40;4.35;;;;;;;;;;5023101;28;20140;-66
2023/03/23 06:50:36;;;;;;;5.75;4.28;;;;;;;;;;5014447;28;20037;-65
2023/03/23 06:53:01;;;;;;;5.60;3.77;;;;;;;;;;5009691;28;20034;-67
2023/03/23 06:55:27;;;;;;;5.07;4.38;;;;;;;;;;4974825;28;20398;-65
2023/03/23 06:57:52;;;;;;;5.78;4.38;;;;;;;;;;5020715;28;20127;-64
2023/03/23 07:00:17;;;;;;;6.78;4.43;;;;;;;;;;5003436;28;20132;-68
2023/03/23 07:02:42;;;;;;;5.57;4.20;;;;;;;;;;4997060;28;20514;-66
2023/03/23 07:05:09;;;;;;;6.25;4.65;;;;;;;;;;5006907;28;20038;-69
2023/03/23 07:07:34;;;;;;;5.72;4.15;;;;;;;;;;4984694;28;20034;-64
2023/03/23 07:10:00;;;;;;;6.07;4.50;;;;;;;;;;4998830;28;20046;-66
2023/03/23 07:12:25;;;;;;;4.50;3.80;;;;;;;;;;4983686;28;20041;-66
2023/03/23 07:14:50;;;;;;;4.82;3.90;;;;;;;;;;5028047;28;20505;-66
2023/03/23 07:17:16;;;;;;;5.73;4.00;;;;;;;;;;5016592;28;20075;-65
2023/03/23 07:19:41;;;;;;;6.10;4.07;;;;;;;;;;5008941;28;20284;-66
2023/03/23 07:22:06;;;;;;;7.15;4.30;;;;;;;;;;5030742;28;20555;-64
2023/03/23 07:24:32;;;;;;;6.45;4.35;;;;;;;;;;5015045;28;20243;-65
2023/03/23 07:26:57;;;;;;;6.22;4.63;;;;;;;;;;5028861;28;20450;-65
2023/03/23 07:29:22;;;;;;;5.97;4.13;;;;;;;;;;5019802;28;20055;-65
2023/03/23 07:31:48;;;;;;;5.10;4.00;;;;;;;;;;4994668;28;20040;-66
2023/03/23 07:34:13;;;;;;;5.78;4.03;;;;;;;;;;4999243;28;20277;-66
2023/03/23 07:36:38;;;;;;;6.38;3.95;;;;;;;;;;5025516;28;20585;-65
2023/03/23 07:39:05;;;;;;;6.65;4.55;;;;;;;;;;5001171;28;20060;-66
2023/03/23 07:41:30;;;;;;;5.45;4.10;;;;;;;;;;5002366;28;20041;-64
2023/03/23 07:43:56;;;;;;;5.78;4.50;;;;;;;;;;5011750;28;20037;-67
2023/03/23 07:46:21;;;;;;;6.93;3.90;;;;;;;;;;4997694;28;20573;-64
2023/03/23 07:48:46;;;;;;;5.07;4.18;;;;;;;;;;4997742;28;20512;-65
2023/03/23 07:51:12;;;;;;;6.67;4.03;;;;;;;;;;4998580;28;20033;-64
2023/03/23 07:53:37;;;;;;;5.88;4.30;;;;;;;;;;4998261;28;20276;-64
2023/03/23 07:56:03;;;;;;;5.93;4.30;;;;;;;;;;5015658;28;20393;-65
2023/03/23 07:58:28;;;;;;;5.65;4.25;;;;;;;;;;5016428;28;20812;-66
2023/03/23 08:00:56;;;;;;;5.43;4.32;;;;;;;;;;5022686;28;20025;-66
2023/03/23 08:03:21;;;;;;;5.75;4.40;;;;;;;;;;4999242;28;20049;-66
2023/03/23 08:05:46;;;;;;;6.33;4.23;;;;;;;;;;5017151;28;20912;-67
2023/03/23 08:08:12;;;;;;;4.97;3.77;;;;;;;;;;5017398;28;20279;-66
2023/03/23 08:10:37;;;;;;;5.15;4.43;;;;;;;;;;5017314;28;20276;-66
2023/03/23 08:13:02;;;;;;;5.90;3.88;;;;;;;;;;5016461;28;20042;-67
2023/03/23 08:15:28;;;;;;;5.33;4.20;;;;;;;;;;5016631;28;20461;-63
2023/03/23 08:17:54;;;;;;;4.60;4.03;;;;;;;;;;4998852;28;20307;-64
2023/03/23 08:20:19;;;;;;;6.25;4.13;;;;;;;;;;5007484;28;20105;-66
2023/03/23 08:22:55;;;;;;;6.00;4.20;;;;;;;;;;4989509;28;20026;-64
2023/03/23 08:25:20;;;;;;;5.68;4.35;;;;;;;;;;5005317;28;20502;-62
2023/03/23 08:27:45;;;;;;;4.97;4.35;;;;;;;;;;4994423;28;20037;-66
2023/03/23 08:30:11;;;;;;;5.00;4.20;;;;;;;;;;4996054;28;20069;-64
2023/03/23 08:32:37;;;;;;;5.15;4.25;;;;;;;;;;4974361;28;20634;-65
2023/03/23 08:35:03;;;;;;;5.13;3.90;;;;;;;;;;4996762;28;20040;-67
2023/03/23 08:37:28;;;;;;;4.65;3.80;;;;;;;;;;4991806;28;20061;-64
2023/03/23 08:39:54;;;;;;;4.93;3.97;;;;;;;;;;5014384;28;20433;-65
2023/03/23 08:42:19;;;;;;;4.82;4.07;;;;;;;;;;4963543;28;20479;-64
2023/03/23 08:44:44;;;;;;;5.72;4.07;;;;;;;;;;4995668;28;20518;-65
2023/03/23 08:47:10;;;;;;;6.10;4.35;;;;;;;;;;4995318;28;20045;-67
2023/03/23 08:49:35;;;;;;;5.40;4.18;;;;;;;;;;4996813;28;20085;-63
2023/03/23 08:52:00;;;;;;;5.90;4.30;;;;;;;;;;4980057;28;20038;-63
2023/03/23 08:54:26;;;;;;;5.05;3.90;;;;;;;;;;4997235;28;20268;-66
2023/03/23 08:56:52;;;;;;;5.70;4.65;;;;;;;;;;4998865;28;20782;-64
2023/03/23 08:59:17;;;;;;;6.13;3.88;;;;;;;;;;4990477;28;20041;-65
2023/03/23 09:01:42;;;;;;;5.68;4.07;;;;;;;;;;5012876;28;20038;-65
2023/03/23 09:04:08;;;;;;;4.03;3.63;;;;;;;;;;5014797;28;20501;-65
2023/03/23 09:06:35;;;;;;;5.30;4.07;;;;;;;;;;4999425;28;20505;-64
2023/03/23 09:09:01;;;;;;;5.75;4.32;;;;;;;;;;5013477;28;20036;-65
2023/03/23 09:11:26;;;;;;;5.13;4.18;;;;;;;;;;5014797;28;20411;-65
2023/03/23 09:13:52;;;;;;;4.68;3.90;;;;;;;;;;4996579;28;20041;-64
2023/03/23 09:16:17;;;;;;;5.15;4.30;;;;;;;;;;4999233;28;20042;-64
2023/03/23 09:18:42;;;;;;;5.63;3.90;;;;;;;;;;5014692;28;20107;-64
2023/03/23 09:21:08;;;;;;;4.87;4.03;;;;;;;;;;5011483;28;20064;-64
2023/03/23 09:23:34;;;;;;;4.32;3.92;;;;;;;;;;5001876;28;20274;-66
2023/03/23 09:25:59;;;;;;;4.88;4.32;;;;;;;;;;4993036;28;20129;-66
2023/03/23 09:28:25;;;;;;;5.72;3.78;;;;;;;;;;5013133;28;20837;-65
2023/03/23 09:30:51;;;;;;;5.07;4.20;;;;;;;;;;4995862;28;20048;-62
2023/03/23 09:33:16;;;;;;;4.85;4.07;;;;;;;;;;5010902;28;20295;-64
2023/03/23 09:35:42;;;;;;;5.00;3.83;;;;;;;;;;5017969;28;20014;-66
2023/03/23 09:38:08;;;;;;;5.60;3.80;;;;;;;;;;5007631;28;20033;-65
2023/03/23 09:40:46;;;;;;;5.07;4.10;;;;;;;;;;5017587;28;20025;-65
2023/03/23 09:43:14;;;;;;;5.38;4.18;;;;;;;;;;5015992;28;20350;-65
2023/03/23 09:45:45;;;;;;;5.65;4.15;;;;;;;;;;5017662;28;21943;-65
2023/03/23 09:48:19;;;;;;;5.13;4.13;;;;;;;;;;5014335;28;20046;-65
2023/03/23 09:50:45;;;;;;;5.07;4.20;;;;;;;;;;5037710;28;20039;-67
2023/03/23 09:53:14;;;;;;;5.78;3.95;;;;;;;;;;5002717;28;20028;-65
2023/03/23 09:55:39;;;;;;;4.80;4.25;;;;;;;;;;5002055;28;20056;-66
2023/03/23 09:58:23;;;;;;;5.27;4.17;;;;;;;;;;5019171;28;20037;-65
2023/03/23 10:00:51;;;;;;;5.15;3.67;;;;;;;;;;5018632;28;20033;-64
2023/03/23 10:03:18;;;;;;;4.65;3.95;;;;;;;;;;5019845;28;20132;-64
2023/03/23 10:05:47;;;;;;;4.47;3.80;;;;;;;;;;5002464;28;20480;-66
2023/03/23 10:08:15;;;;;;;5.13;3.80;;;;;;;;;;5019063;28;20333;-64
2023/03/23 10:10:59;;;;;;;5.40;4.30;;;;;;;;;;5036586;28;20040;-65
2023/03/23 10:13:30;;;;;;;4.50;3.65;;;;;;;;;;5019673;28;20071;-66
2023/03/23 10:15:56;;;;;;;4.60;3.97;;;;;;;;;;5037275;28;20350;-64
2023/03/23 10:18:36;;;;;;;4.38;3.80;;;;;;;;;;5038029;28;20056;-63
2023/03/23 10:21:03;;;;;;;4.80;3.90;;;;;;;;;;5019628;28;20044;-64
2023/03/23 10:23:31;;;;;;;4.97;4.20;;;;;;;;;;5037277;28;20033;-66
2023/03/23 10:26:00;;;;;;;4.78;3.95;;;;;;;;;;5036796;28;20064;-65
2023/03/23 10:28:39;;;;;;;5.00;4.07;;;;;;;;;;5037143;28;20037;-63
2023/03/23 10:31:05;;;;;;;4.38;3.88;;;;;;;;;;5001021;28;20135;-65
2023/03/23 10:33:30;;;;;;;5.00;3.92;;;;;;;;;;5008129;28;20589;-64
2023/03/23 10:36:06;;;;;;;4.60;4.00;;;;;;;;;;5036979;28;20033;-64
2023/03/23 10:38:33;;;;;;;4.20;3.78;;;;;;;;;;5018656;28;20045;-64
2023/03/23 10:41:24;;;;;;;4.55;3.90;;;;;;;;;;5018291;28;20079;-67
2023/03/23 10:43:52;;;;;;;4.20;3.80;;;;;;;;;;5014507;28;20049;-62
2023/03/23 10:46:36;;;;;;;5.25;4.10;;;;;;;;;;5017595;28;20549;-62
2023/03/23 10:49:02;;;;;;;4.50;4.00;;;;;;;;;;5011443;28;20533;-67
2023/03/23 10:51:30;;;;;;;4.70;3.72;;;;;;;;;;4975949;28;20051;-65
2023/03/23 10:53:57;;;;;;;4.78;4.28;;;;;;;;;;4995081;28;20034;-66
2023/03/23 10:56:22;;;;;;;4.30;3.90;;;;;;;;;;4981987;28;20037;-63
2023/03/23 10:58:47;;;;;;;5.17;3.73;;;;;;;;;;5016837;28;20064;-63
2023/03/23 11:01:13;;;;;;;5.00;4.13;;;;;;;;;;4998860;28;20052;-66
2023/03/23 11:03:44;;;;;;;4.75;3.67;;;;;;;;;;5015661;28;20555;-67
2023/03/23 11:06:10;;;;;;;4.15;3.70;;;;;;;;;;4998563;28;20049;-64
2023/03/23 11:08:37;;;;;;;4.78;3.90;;;;;;;;;;4982785;28;20042;-66
2023/03/23 11:11:21;;;;;;;4.43;3.60;;;;;;;;;;5017050;28;20915;-64
2023/03/23 11:13:47;;;;;;;4.70;3.80;;;;;;;;;;4998819;28;20044;-62
2023/03/23 11:16:22;;;;;;;4.90;4.40;;;;;;;;;;4981623;28;20506;-65
2023/03/23 11:18:48;;;;;;;5.07;3.90;;;;;;;;;;5015784;28;20881;-66
2023/03/23 11:21:13;;;;;;;4.50;3.70;;;;;;;;;;5015442;28;20087;-65
2023/03/23 11:23:42;;;;;;;4.97;4.07;;;;;;;;;;5016290;28;20533;-64
2023/03/23 11:26:14;;;;;;;4.25;3.50;;;;;;;;;;5015456;28;20525;-64
2023/03/23 11:28:59;;;;;;;4.90;4.00;;;;;;;;;;5016227;28;20029;-64
2023/03/23 11:31:27;;;;;;;5.03;3.78;;;;;;;;;;4997961;28;20492;-64
2023/03/23 11:33:52;;;;;;;5.05;3.83;;;;;;;;;;4980619;28;20145;-64
2023/03/23 11:36:17;;;;;;;4.83;3.80;;;;;;;;;;4997761;28;20120;-63
2023/03/23 11:38:43;;;;;;;4.43;3.72;;;;;;;;;;5014527;28;20748;-65
2023/03/23 11:41:11;;;;;;;5.80;4.00;;;;;;;;;;4996335;28;20056;-66
2023/03/23 11:43:39;;;;;;;4.68;3.70;;;;;;;;;;4996631;28;20044;-66
2023/03/23 11:46:25;;;;;;;5.38;4.13;;;;;;;;;;4979439;28;20084;-66
2023/03/23 11:49:12;;;;;;;4.38;3.60;;;;;;;;;;4953027;28;20064;-65
2023/03/23 11:51:51;;;;;;;4.57;3.88;;;;;;;;;;4977066;28;20040;-64
2023/03/23 11:54:52;;;;;;;5.05;3.88;;;;;;;;;;4999904;28;20116;-66
2023/03/23 11:57:18;;;;;;;4.65;3.63;;;;;;;;;;4951427;28;20192;-64
2023/03/23 11:59:43;;;;;;;4.53;3.60;;;;;;;;;;4994751;28;20040;-64
2023/03/23 12:02:09;;;;;;;4.43;3.80;;;;;;;;;;4995188;28;20049;-64
2023/03/23 12:04:52;;;;;;;4.05;3.63;;;;;;;;;;5016399;28;20434;-67
2023/03/23 12:07:17;;;;;;;4.50;3.83;;;;;;;;;;5015822;28;20086;-66
2023/03/23 12:09:49;;;;;;;4.30;3.60;;;;;;;;;;5015322;28;20324;-63
2023/03/23 12:12:23;;;;;;;4.05;3.60;;;;;;;;;;5014190;28;20569;-65
2023/03/23 12:15:08;;;;;;;4.22;3.78;;;;;;;;;;5014225;28;20040;-66
2023/03/23 12:17:33;;;;;;;5.15;4.07;;;;;;;;;;4997173;28;20053;-64
2023/03/23 12:20:17;;;;;;;3.95;3.42;;;;;;;;;;5028362;28;20025;-65
2023/03/23 12:22:48;;;;;;;4.60;3.70;;;;;;;;;;4996374;28;20050;-67
2023/03/23 12:25:28;;;;;;;4.72;3.72;;;;;;;;;;4998735;28;20134;-65
2023/03/23 12:28:03;;;;;;;5.10;3.67;;;;;;;;;;4967250;28;20048;-64
2023/03/23 12:30:35;;;;;;;4.18;3.78;;;;;;;;;;4983026;28;20124;-66
2023/03/23 12:33:18;;;;;;;3.63;3.22;;;;;;;;;;5016343;28;20037;-65
2023/03/23 12:35:56;;;;;;;4.03;3.40;;;;;;;;;;5035246;28;20111;-65
2023/03/23 12:38:46;;;;;;;4.28;3.88;;;;;;;;;;5014626;28;20144;-65
2023/03/23 12:41:31;;;;;;;4.97;3.63;;;;;;;;;;5013370;28;20038;-65
2023/03/23 12:44:00;;;;;;;4.32;3.53;;;;;;;;;;5014676;28;20490;-65
2023/03/23 12:46:38;;;;;;;4.68;3.60;;;;;;;;;;5013568;28;20076;-63
2023/03/23 12:49:08;;;;;;;4.68;3.80;;;;;;;;;;5007250;28;20483;-65
2023/03/23 12:51:53;;;;;;;4.32;3.78;;;;;;;;;;4977273;28;20025;-65
2023/03/23 12:54:21;;;;;;;3.80;3.35;;;;;;;;;;4995187;28;20402;-65
2023/03/23 12:56:56;;;;;;;4.57;3.65;;;;;;;;;;4995582;28;20580;-66
2023/03/23 12:59:22;;;;;;;4.40;3.75;;;;;;;;;;4993588;28;20034;-66
2023/03/23 13:01:48;;;;;;;4.30;3.50;;;;;;;;;;4994963;28;20218;-63
2023/03/23 13:04:15;;;;;;;4.25;3.85;;;;;;;;;;4995610;28;20101;-65
2023/03/23 13:06:41;;;;;;;4.10;3.33;;;;;;;;;;5003688;28;20116;-65
2023/03/23 13:09:12;;;;;;;4.00;3.55;;;;;;;;;;4997044;28;20422;-66
2023/03/23 13:11:37;;;;;;;4.15;3.75;;;;;;;;;;4999118;28;20778;-64
2023/03/23 13:14:13;;;;;;;5.65;3.90;;;;;;;;;;4999721;28;20133;-63
2023/03/23 13:16:41;;;;;;;4.13;3.72;;;;;;;;;;4997206;28;20041;-66
2023/03/23 13:19:11;;;;;;;3.88;3.30;;;;;;;;;;5002027;28;20056;-64
2023/03/23 13:21:38;;;;;;;4.25;3.60;;;;;;;;;;5009330;28;20042;-64
2023/03/23 13:24:08;;;;;;;4.28;3.55;;;;;;;;;;5009206;28;20041;-64
2023/03/23 13:26:37;;;;;;;3.95;3.50;;;;;;;;;;4980945;28;20141;-65
2023/03/23 13:29:08;;;;;;;4.45;3.83;;;;;;;;;;4997484;28;20064;-65
2023/03/23 13:31:35;;;;;;;4.63;3.35;;;;;;;;;;4997904;28;20038;-65
2023/03/23 13:34:01;;;;;;;4.35;3.30;;;;;;;;;;4998886;28;20106;-67
2023/03/23 13:36:50;;;;;;;4.15;3.70;;;;;;;;;;5013962;28;20060;-66
2023/03/23 13:39:17;;;;;;;3.80;3.30;;;;;;;;;;4998873;28;20046;-64
2023/03/23 13:41:58;;;;;;;4.90;3.58;;;;;;;;;;5013806;28;20045;-67
2023/03/23 13:44:25;;;;;;;4.70;3.80;;;;;;;;;;4980589;28;20038;-66
2023/03/23 13:46:54;;;;;;;3.80;3.35;;;;;;;;;;5013821;28;20045;-65
2023/03/23 13:49:21;;;;;;;4.53;3.67;;;;;;;;;;4998016;28;20571;-66
2023/03/23 13:51:52;;;;;;;3.63;3.33;;;;;;;;;;4997064;28;20035;-66
2023/03/23 13:54:30;;;;;;;3.80;3.13;;;;;;;;;;4998794;28;20076;-66
2023/03/23 13:56:56;;;;;;;3.80;3.40;;;;;;;;;;4996667;28;20129;-66
2023/03/23 13:59:32;;;;;;;3.67;3.03;;;;;;;;;;4998645;28;20048;-63
2023/03/23 14:02:16;;;;;;;3.90;3.08;;;;;;;;;;4998469;28;20069;-65
2023/03/23 14:04:41;;;;;;;4.05;3.53;;;;;;;;;;4997948;28;20057;-64
2023/03/23 14:07:10;;;;;;;4.00;3.20;;;;;;;;;;4997861;28;20471;-66
2023/03/23 14:09:39;;;;;;;4.18;3.50;;;;;;;;;;4997788;28;20285;-67
2023/03/23 14:12:08;;;;;;;3.22;2.92;;;;;;;;;;4996733;28;20053;-64
2023/03/23 14:14:39;;;;;;;3.77;2.93;;;;;;;;;;4998515;28;20435;-64
2023/03/23 14:17:05;;;;;;;3.70;3.10;;;;;;;;;;4976019;28;20693;-66
2023/03/23 14:19:30;;;;;;;3.70;3.30;;;;;;;;;;5010757;28;20044;-64
2023/03/23 14:21:56;;;;;;;3.60;3.30;;;;;;;;;;4995194;28;20030;-66
2023/03/23 14:24:23;;;;;;;4.00;3.55;;;;;;;;;;4997603;28;20295;-65
2023/03/23 14:26:51;;;;;;;3.88;3.40;;;;;;;;;;4997922;28;20041;-67
2023/03/23 14:29:17;;;;;;;4.40;3.50;;;;;;;;;;4997731;28;20034;-66
2023/03/23 14:31:42;;;;;;;3.50;3.15;;;;;;;;;;4999487;28;20776;-64
2023/03/23 14:34:14;;;;;;;3.53;3.07;;;;;;;;;;5008657;28;20518;-63
2023/03/23 14:36:40;;;;;;;3.40;3.10;;;;;;;;;;4997326;28;20808;-64
2023/03/23 14:39:06;;;;;;;3.95;3.03;;;;;;;;;;4978612;28;20034;-63
2023/03/23 14:41:31;;;;;;;3.65;3.00;;;;;;;;;;5010446;28;20439;-66
2023/03/23 14:43:57;;;;;;;3.85;3.33;;;;;;;;;;5006316;28;20029;-64
2023/03/23 14:46:22;;;;;;;3.17;2.70;;;;;;;;;;5013430;28;20033;-66
2023/03/23 14:48:47;;;;;;;3.63;2.87;;;;;;;;;;5013730;28;20057;-63